sensor_id;sensor_type;location;lat;lon;timestamp;P1;durP1;ratioP1;P2;durP2;ratioP2
45893;SDS011;31603;51.148;16.932;2023-03-01T00:16:23;111.40;;;44.73;;
45893;SDS011;31603;51.148;16.932;2023-03-01T00:18:55;117.70;;;42.10;;
45893;SDS011;31603;51.148;16.932;2023-03-01T00:22:02;112.73;;;43.13;;
45893;SDS011;31603;51.148;16.932;2023-03-01T00:24:43;100.10;;;42.23;;
45893;SDS011;31603;51.148;16.932;2023-03-01T00:27:10;111.53;;;44.33;;
45893;SDS011;31603;51.148;16.932;2023-03-01T00:29:39;111.60;;;44.77;;
45893;SDS011;31603;51.148;16.932;2023-03-01T00:35:00;110.23;;;45.27;;
45893;SDS011;31603;51.148;16.932;2023-03-01T00:37:43;123.37;;;50.23;;
45893;SDS011;31603;51.148;16.932;2023-03-01T00:40:25;122.18;;;49.10;;
45893;SDS011;31603;51.148;16.932;2023-03-01T00:42:56;138.83;;;53.50;;
45893;SDS011;31603;51.148;16.932;2023-03-01T00:45:54;126.17;;;49.90;;
45893;SDS011;31603;51.148;16.932;2023-03-01T00:48:46;116.57;;;47.97;;
45893;SDS011;31603;51.148;16.932;2023-03-01T00:51:27;163.23;;;62.27;;
45893;SDS011;31603;51.148;16.932;2023-03-01T00:54:09;140.07;;;58.00;;
45893;SDS011;31603;51.148;16.932;2023-03-01T00:56:42;146.67;;;59.80;;
45893;SDS011;31603;51.148;16.932;2023-03-01T00:59:23;155.27;;;58.40;;
45893;SDS011;31603;51.148;16.932;2023-03-01T01:01:50;134.97;;;52.37;;
45893;SDS011;31603;51.148;16.932;2023-03-01T01:04:50;136.77;;;53.73;;
45893;SDS011;31603;51.148;16.932;2023-03-01T01:07:30;132.30;;;50.10;;
45893;SDS011;31603;51.148;16.932;2023-03-01T01:10:12;113.55;;;42.10;;
45893;SDS011;31603;51.148;16.932;2023-03-01T01:15:36;147.57;;;56.73;;
45893;SDS011;31603;51.148;16.932;2023-03-01T01:18:19;140.00;;;54.57;;
45893;SDS011;31603;51.148;16.932;2023-03-01T01:36:19;125.45;;;47.20;;
45893;SDS011;31603;51.148;16.932;2023-03-01T01:41:36;138.70;;;51.10;;
45893;SDS011;31603;51.148;16.932;2023-03-01T01:44:19;132.43;;;48.07;;
45893;SDS011;31603;51.148;16.932;2023-03-01T01:47:01;120.93;;;47.00;;
45893;SDS011;31603;51.148;16.932;2023-03-01T01:55:53;124.10;;;46.87;;
45893;SDS011;31603;51.148;16.932;2023-03-01T01:58:53;111.65;;;46.75;;
45893;SDS011;31603;51.148;16.932;2023-03-01T02:01:52;115.07;;;46.57;;
45893;SDS011;31603;51.148;16.932;2023-03-01T02:04:44;126.20;;;49.57;;
45893;SDS011;31603;51.148;16.932;2023-03-01T02:07:25;150.60;;;58.37;;
45893;SDS011;31603;51.148;16.932;2023-03-01T02:21:51;126.17;;;50.50;;
45893;SDS011;31603;51.148;16.932;2023-03-01T02:24:47;131.07;;;50.90;;
45893;SDS011;31603;51.148;16.932;2023-03-01T02:27:40;133.13;;;52.23;;
45893;SDS011;31603;51.148;16.932;2023-03-01T02:30:18;131.77;;;52.13;;
45893;SDS011;31603;51.148;16.932;2023-03-01T02:32:47;140.10;;;57.37;;
45893;SDS011;31603;51.148;16.932;2023-03-01T02:35:14;137.70;;;57.50;;
45893;SDS011;31603;51.148;16.932;2023-03-01T02:37:44;139.90;;;56.33;;
45893;SDS011;31603;51.148;16.932;2023-03-01T02:40:13;138.87;;;55.30;;
45893;SDS011;31603;51.148;16.932;2023-03-01T02:42:47;124.57;;;51.77;;
45893;SDS011;31603;51.148;16.932;2023-03-01T03:01:09;121.60;;;49.53;;
45893;SDS011;31603;51.148;16.932;2023-03-01T03:03:55;117.93;;;46.67;;
45893;SDS011;31603;51.148;16.932;2023-03-01T03:06:56;129.07;;;50.23;;
45893;SDS011;31603;51.148;16.932;2023-03-01T03:09:48;126.33;;;51.50;;
45893;SDS011;31603;51.148;16.932;2023-03-01T03:12:49;112.78;;;45.78;;
45893;SDS011;31603;51.148;16.932;2023-03-01T03:18:29;122.77;;;46.77;;
45893;SDS011;31603;51.148;16.932;2023-03-01T03:20:56;118.00;;;47.30;;
45893;SDS011;31603;51.148;16.932;2023-03-01T03:23:37;105.65;;;42.30;;
45893;SDS011;31603;51.148;16.932;2023-03-01T03:26:05;120.70;;;50.77;;
45893;SDS011;31603;51.148;16.932;2023-03-01T03:28:45;112.20;;;46.92;;
45893;SDS011;31603;51.148;16.932;2023-03-01T03:31:16;114.53;;;47.97;;
45893;SDS011;31603;51.148;16.932;2023-03-01T03:33:46;128.23;;;50.00;;
45893;SDS011;31603;51.148;16.932;2023-03-01T03:36:15;120.60;;;49.63;;
45893;SDS011;31603;51.148;16.932;2023-03-01T03:38:45;132.80;;;53.13;;
45893;SDS011;31603;51.148;16.932;2023-03-01T03:41:14;134.10;;;51.73;;
45893;SDS011;31603;51.148;16.932;2023-03-01T03:43:45;133.80;;;48.50;;
45893;SDS011;31603;51.148;16.932;2023-03-01T03:46:14;140.63;;;56.23;;
45893;SDS011;31603;51.148;16.932;2023-03-01T03:51:52;136.23;;;51.10;;
45893;SDS011;31603;51.148;16.932;2023-03-01T03:54:36;125.67;;;50.13;;
45893;SDS011;31603;51.148;16.932;2023-03-01T03:57:03;125.93;;;48.77;;
45893;SDS011;31603;51.148;16.932;2023-03-01T03:59:52;121.73;;;49.70;;
45893;SDS011;31603;51.148;16.932;2023-03-01T04:02:47;113.07;;;46.83;;
45893;SDS011;31603;51.148;16.932;2023-03-01T04:05:28;113.83;;;46.77;;
45893;SDS011;31603;51.148;16.932;2023-03-01T04:11:03;118.10;;;45.43;;
45893;SDS011;31603;51.148;16.932;2023-03-01T04:16:52;127.53;;;47.20;;
45893;SDS011;31603;51.148;16.932;2023-03-01T04:19:53;120.40;;;44.47;;
45893;SDS011;31603;51.148;16.932;2023-03-01T04:22:45;119.97;;;44.27;;
45893;SDS011;31603;51.148;16.932;2023-03-01T04:25:29;134.35;;;47.40;;
45893;SDS011;31603;51.148;16.932;2023-03-01T04:31:07;144.70;;;49.87;;
45893;SDS011;31603;51.148;16.932;2023-03-01T04:33:54;155.13;;;55.63;;
45893;SDS011;31603;51.148;16.932;2023-03-01T04:36:46;132.53;;;50.90;;
45893;SDS011;31603;51.148;16.932;2023-03-01T04:39:29;130.40;;;50.57;;
45893;SDS011;31603;51.148;16.932;2023-03-01T04:57:03;137.55;;;52.95;;
45893;SDS011;31603;51.148;16.932;2023-03-01T04:59:44;177.33;;;69.63;;
45893;SDS011;31603;51.148;16.932;2023-03-01T05:02:25;146.50;;;62.22;;
45893;SDS011;31603;51.148;16.932;2023-03-01T05:04:57;141.13;;;58.05;;
45893;SDS011;31603;51.148;16.932;2023-03-01T05:22:50;119.77;;;48.37;;
45893;SDS011;31603;51.148;16.932;2023-03-01T05:25:32;125.87;;;49.80;;
45893;SDS011;31603;51.148;16.932;2023-03-01T05:28:05;116.67;;;46.87;;
45893;SDS011;31603;51.148;16.932;2023-03-01T05:30:45;121.47;;;45.50;;
45893;SDS011;31603;51.148;16.932;2023-03-01T05:33:25;120.30;;;52.13;;
45893;SDS011;31603;51.148;16.932;2023-03-01T05:47:57;116.77;;;46.93;;
45893;SDS011;31603;51.148;16.932;2023-03-01T05:50:45;148.37;;;57.97;;
45893;SDS011;31603;51.148;16.932;2023-03-01T05:53:18;122.50;;;49.90;;
45893;SDS011;31603;51.148;16.932;2023-03-01T05:55:47;132.30;;;51.67;;
45893;SDS011;31603;51.148;16.932;2023-03-01T05:58:15;132.63;;;52.63;;
45893;SDS011;31603;51.148;16.932;2023-03-01T06:06:53;130.93;;;53.43;;
45893;SDS011;31603;51.148;16.932;2023-03-01T06:09:36;121.23;;;50.87;;
45893;SDS011;31603;51.148;16.932;2023-03-01T06:12:03;117.80;;;46.63;;
45893;SDS011;31603;51.148;16.932;2023-03-01T06:14:45;131.30;;;50.47;;
45893;SDS011;31603;51.148;16.932;2023-03-01T06:17:13;124.07;;;47.20;;
45893;SDS011;31603;51.148;16.932;2023-03-01T06:25:58;113.23;;;42.33;;
45893;SDS011;31603;51.148;16.932;2023-03-01T06:28:45;110.67;;;47.73;;
45893;SDS011;31603;51.148;16.932;2023-03-01T06:31:14;129.80;;;49.10;;
45893;SDS011;31603;51.148;16.932;2023-03-01T06:33:44;115.00;;;46.77;;
45893;SDS011;31603;51.148;16.932;2023-03-01T06:36:25;118.30;;;51.10;;
45893;SDS011;31603;51.148;16.932;2023-03-01T06:41:51;110.33;;;47.00;;
45893;SDS011;31603;51.148;16.932;2023-03-01T06:44:50;124.50;;;54.40;;
45893;SDS011;31603;51.148;16.932;2023-03-01T06:47:31;118.20;;;45.87;;
45893;SDS011;31603;51.148;16.932;2023-03-01T06:50:08;118.63;;;49.60;;
45893;SDS011;31603;51.148;16.932;2023-03-01T06:52:50;113.07;;;46.97;;
45893;SDS011;31603;51.148;16.932;2023-03-01T06:55:45;108.50;;;46.47;;
45893;SDS011;31603;51.148;16.932;2023-03-01T07:00:55;126.68;;;53.10;;
45893;SDS011;31603;51.148;16.932;2023-03-01T07:03:22;158.38;;;65.47;;
45893;SDS011;31603;51.148;16.932;2023-03-01T07:05:49;150.60;;;65.57;;
45893;SDS011;31603;51.148;16.932;2023-03-01T07:08:17;144.77;;;59.72;;
45893;SDS011;31603;51.148;16.932;2023-03-01T07:10:45;148.95;;;65.10;;
45893;SDS011;31603;51.148;16.932;2023-03-01T07:13:11;144.30;;;58.72;;
45893;SDS011;31603;51.148;16.932;2023-03-01T07:15:40;154.13;;;65.00;;
45893;SDS011;31603;51.148;16.932;2023-03-01T07:18:08;120.88;;;52.65;;
45893;SDS011;31603;51.148;16.932;2023-03-01T07:20:34;134.25;;;55.75;;
45893;SDS011;31603;51.148;16.932;2023-03-01T07:23:02;138.55;;;54.88;;
45893;SDS011;31603;51.148;16.932;2023-03-01T07:25:32;126.43;;;50.97;;
45893;SDS011;31603;51.148;16.932;2023-03-01T07:28:00;126.32;;;54.05;;
45893;SDS011;31603;51.148;16.932;2023-03-01T07:30:44;116.45;;;50.85;;
45893;SDS011;31603;51.148;16.932;2023-03-01T07:33:10;122.22;;;51.85;;
45893;SDS011;31603;51.148;16.932;2023-03-01T07:35:46;137.60;;;57.50;;
45893;SDS011;31603;51.148;16.932;2023-03-01T07:38:12;137.98;;;59.38;;
45893;SDS011;31603;51.148;16.932;2023-03-01T07:43:48;120.90;;;49.95;;
45893;SDS011;31603;51.148;16.932;2023-03-01T07:46:15;118.35;;;51.42;;
45893;SDS011;31603;51.148;16.932;2023-03-01T07:48:46;137.05;;;56.13;;
45893;SDS011;31603;51.148;16.932;2023-03-01T07:51:26;116.53;;;52.37;;
45893;SDS011;31603;51.148;16.932;2023-03-01T07:53:53;102.50;;;47.50;;
45893;SDS011;31603;51.148;16.932;2023-03-01T07:57:34;106.95;;;47.92;;
45893;SDS011;31603;51.148;16.932;2023-03-01T08:00:02;94.97;;;47.47;;
45893;SDS011;31603;51.148;16.932;2023-03-01T08:02:45;84.65;;;38.58;;
45893;SDS011;31603;51.148;16.932;2023-03-01T08:23:20;92.15;;;41.67;;
45893;SDS011;31603;51.148;16.932;2023-03-01T08:25:47;75.55;;;36.33;;
45893;SDS011;31603;51.148;16.932;2023-03-01T08:28:18;86.32;;;39.47;;
45893;SDS011;31603;51.148;16.932;2023-03-01T08:34:04;72.22;;;36.88;;
45893;SDS011;31603;51.148;16.932;2023-03-01T08:36:48;78.03;;;36.50;;
45893;SDS011;31603;51.148;16.932;2023-03-01T08:42:04;82.80;;;34.38;;
45893;SDS011;31603;51.148;16.932;2023-03-01T08:44:47;69.65;;;35.63;;
45893;SDS011;31603;51.148;16.932;2023-03-01T08:52:38;103.68;;;35.35;;
45893;SDS011;31603;51.148;16.932;2023-03-01T08:57:49;79.90;;;37.35;;
45893;SDS011;31603;51.148;16.932;2023-03-01T09:00:30;62.45;;;33.85;;
45893;SDS011;31603;51.148;16.932;2023-03-01T09:03:11;66.70;;;31.27;;
45893;SDS011;31603;51.148;16.932;2023-03-01T09:05:59;65.03;;;32.22;;
45893;SDS011;31603;51.148;16.932;2023-03-01T09:08:45;62.75;;;26.98;;
45893;SDS011;31603;51.148;16.932;2023-03-01T09:16:47;51.45;;;27.70;;
45893;SDS011;31603;51.148;16.932;2023-03-01T09:19:13;47.50;;;24.70;;
45893;SDS011;31603;51.148;16.932;2023-03-01T09:21:40;46.28;;;25.33;;
45893;SDS011;31603;51.148;16.932;2023-03-01T09:24:13;48.75;;;25.33;;
45893;SDS011;31603;51.148;16.932;2023-03-01T09:26:41;38.22;;;22.02;;
45893;SDS011;31603;51.148;16.932;2023-03-01T09:29:11;43.47;;;23.48;;
45893;SDS011;31603;51.148;16.932;2023-03-01T09:31:41;44.17;;;22.65;;
45893;SDS011;31603;51.148;16.932;2023-03-01T09:34:08;45.63;;;22.65;;
45893;SDS011;31603;51.148;16.932;2023-03-01T09:39:47;41.55;;;22.38;;
45893;SDS011;31603;51.148;16.932;2023-03-01T09:42:14;48.33;;;24.25;;
45893;SDS011;31603;51.148;16.932;2023-03-01T09:44:43;40.60;;;23.10;;
45893;SDS011;31603;51.148;16.932;2023-03-01T09:47:16;44.10;;;21.45;;
45893;SDS011;31603;51.148;16.932;2023-03-01T09:49:46;39.70;;;21.00;;
45893;SDS011;31603;51.148;16.932;2023-03-01T09:52:23;43.33;;;23.38;;
45893;SDS011;31603;51.148;16.932;2023-03-01T09:54:56;41.28;;;21.33;;
45893;SDS011;31603;51.148;16.932;2023-03-01T09:57:47;40.65;;;22.58;;
45893;SDS011;31603;51.148;16.932;2023-03-01T10:00:19;47.55;;;23.77;;
45893;SDS011;31603;51.148;16.932;2023-03-01T10:02:52;39.38;;;21.25;;
45893;SDS011;31603;51.148;16.932;2023-03-01T10:05:51;43.05;;;24.10;;
45893;SDS011;31603;51.148;16.932;2023-03-01T10:08:27;42.95;;;23.92;;
45893;SDS011;31603;51.148;16.932;2023-03-01T10:11:01;51.50;;;25.83;;
45893;SDS011;31603;51.148;16.932;2023-03-01T10:13:33;44.65;;;24.05;;
45893;SDS011;31603;51.148;16.932;2023-03-01T10:16:06;51.95;;;25.98;;
45893;SDS011;31603;51.148;16.932;2023-03-01T10:18:39;42.35;;;24.25;;
45893;SDS011;31603;51.148;16.932;2023-03-01T10:21:09;40.25;;;23.05;;
45893;SDS011;31603;51.148;16.932;2023-03-01T10:23:43;38.30;;;21.08;;
45893;SDS011;31603;51.148;16.932;2023-03-01T10:26:13;35.63;;;19.88;;
45893;SDS011;31603;51.148;16.932;2023-03-01T10:28:52;36.78;;;22.63;;
45893;SDS011;31603;51.148;16.932;2023-03-01T10:31:27;38.72;;;22.13;;
45893;SDS011;31603;51.148;16.932;2023-03-01T10:34:04;36.22;;;20.85;;
45893;SDS011;31603;51.148;16.932;2023-03-01T10:36:34;44.80;;;24.60;;
45893;SDS011;31603;51.148;16.932;2023-03-01T10:39:11;41.83;;;22.25;;
45893;SDS011;31603;51.148;16.932;2023-03-01T10:41:51;47.22;;;23.52;;
45893;SDS011;31603;51.148;16.932;2023-03-01T10:47:08;42.17;;;23.67;;
45893;SDS011;31603;51.148;16.932;2023-03-01T10:49:51;40.08;;;22.80;;
45893;SDS011;31603;51.148;16.932;2023-03-01T10:52:24;39.97;;;22.00;;
45893;SDS011;31603;51.148;16.932;2023-03-01T10:54:56;36.80;;;21.10;;
45893;SDS011;31603;51.148;16.932;2023-03-01T10:57:30;34.78;;;20.48;;
45893;SDS011;31603;51.148;16.932;2023-03-01T11:00:02;29.88;;;18.48;;
45893;SDS011;31603;51.148;16.932;2023-03-01T11:02:41;29.67;;;18.83;;
45893;SDS011;31603;51.148;16.932;2023-03-01T11:05:15;30.38;;;17.40;;
45893;SDS011;31603;51.148;16.932;2023-03-01T11:07:46;27.42;;;16.65;;
45893;SDS011;31603;51.148;16.932;2023-03-01T11:10:22;26.88;;;16.75;;
45893;SDS011;31603;51.148;16.932;2023-03-01T11:12:51;27.88;;;17.05;;
45893;SDS011;31603;51.148;16.932;2023-03-01T11:15:23;25.13;;;15.90;;
45893;SDS011;31603;51.148;16.932;2023-03-01T11:17:52;26.90;;;16.38;;
45893;SDS011;31603;51.148;16.932;2023-03-01T11:20:25;24.95;;;15.60;;
45893;SDS011;31603;51.148;16.932;2023-03-01T11:22:56;29.33;;;17.75;;
45893;SDS011;31603;51.148;16.932;2023-03-01T11:25:42;26.55;;;16.27;;
45893;SDS011;31603;51.148;16.932;2023-03-01T11:28:10;21.65;;;14.43;;
45893;SDS011;31603;51.148;16.932;2023-03-01T11:30:41;27.70;;;15.15;;
45893;SDS011;31603;51.148;16.932;2023-03-01T11:33:16;27.70;;;14.68;;
45893;SDS011;31603;51.148;16.932;2023-03-01T11:35:47;26.25;;;15.13;;
45893;SDS011;31603;51.148;16.932;2023-03-01T11:38:22;25.10;;;14.70;;
45893;SDS011;31603;51.148;16.932;2023-03-01T11:40:54;27.88;;;16.42;;
45893;SDS011;31603;51.148;16.932;2023-03-01T11:43:29;22.67;;;13.80;;
45893;SDS011;31603;51.148;16.932;2023-03-01T11:49:04;26.40;;;15.25;;
45893;SDS011;31603;51.148;16.932;2023-03-01T11:51:46;26.15;;;16.48;;
45893;SDS011;31603;51.148;16.932;2023-03-01T11:54:26;25.10;;;15.73;;
45893;SDS011;31603;51.148;16.932;2023-03-01T11:57:03;26.55;;;16.35;;
45893;SDS011;31603;51.148;16.932;2023-03-01T11:59:56;25.17;;;14.95;;
45893;SDS011;31603;51.148;16.932;2023-03-01T12:05:48;25.73;;;16.02;;
45893;SDS011;31603;51.148;16.932;2023-03-01T12:08:30;25.58;;;14.65;;
45893;SDS011;31603;51.148;16.932;2023-03-01T12:11:05;22.98;;;14.15;;
45893;SDS011;31603;51.148;16.932;2023-03-01T12:13:51;22.48;;;14.60;;
45893;SDS011;31603;51.148;16.932;2023-03-01T12:16:36;26.13;;;15.63;;
45893;SDS011;31603;51.148;16.932;2023-03-01T12:19:24;25.20;;;15.43;;
45893;SDS011;31603;51.148;16.932;2023-03-01T12:22:17;24.27;;;14.23;;
45893;SDS011;31603;51.148;16.932;2023-03-01T12:27:54;21.48;;;13.43;;
45893;SDS011;31603;51.148;16.932;2023-03-01T12:30:48;18.40;;;12.02;;
45893;SDS011;31603;51.148;16.932;2023-03-01T12:33:40;20.33;;;11.45;;
45893;SDS011;31603;51.148;16.932;2023-03-01T12:36:22;15.48;;;10.10;;
45893;SDS011;31603;51.148;16.932;2023-03-01T12:38:59;15.57;;;9.25;;
45893;SDS011;31603;51.148;16.932;2023-03-01T12:41:42;17.25;;;8.60;;
45893;SDS011;31603;51.148;16.932;2023-03-01T12:44:15;11.52;;;7.20;;
45893;SDS011;31603;51.148;16.932;2023-03-01T12:52:49;12.38;;;7.78;;
45893;SDS011;31603;51.148;16.932;2023-03-01T12:55:22;10.80;;;6.30;;
45893;SDS011;31603;51.148;16.932;2023-03-01T12:57:56;10.20;;;6.35;;
45893;SDS011;31603;51.148;16.932;2023-03-01T13:00:31;12.73;;;7.65;;
45893;SDS011;31603;51.148;16.932;2023-03-01T13:03:04;13.50;;;7.35;;
45893;SDS011;31603;51.148;16.932;2023-03-01T13:06:07;11.48;;;6.93;;
45893;SDS011;31603;51.148;16.932;2023-03-01T13:08:38;11.27;;;7.13;;
45893;SDS011;31603;51.148;16.932;2023-03-01T13:11:14;11.43;;;7.10;;
45893;SDS011;31603;51.148;16.932;2023-03-01T13:13:43;13.73;;;7.13;;
45893;SDS011;31603;51.148;16.932;2023-03-01T13:16:20;11.85;;;7.30;;
45893;SDS011;31603;51.148;16.932;2023-03-01T13:19:07;14.35;;;9.23;;
45893;SDS011;31603;51.148;16.932;2023-03-01T13:21:40;17.00;;;10.57;;
45893;SDS011;31603;51.148;16.932;2023-03-01T13:29:44;13.68;;;8.25;;
45893;SDS011;31603;51.148;16.932;2023-03-01T13:32:18;12.05;;;8.32;;
45893;SDS011;31603;51.148;16.932;2023-03-01T13:34:47;12.07;;;7.60;;
45893;SDS011;31603;51.148;16.932;2023-03-01T13:37:22;13.10;;;8.63;;
45893;SDS011;31603;51.148;16.932;2023-03-01T13:39:54;9.77;;;6.80;;
45893;SDS011;31603;51.148;16.932;2023-03-01T13:42:37;13.10;;;7.03;;
45893;SDS011;31603;51.148;16.932;2023-03-01T13:45:15;10.60;;;7.60;;
45893;SDS011;31603;51.148;16.932;2023-03-01T13:47:45;14.68;;;9.13;;
45893;SDS011;31603;51.148;16.932;2023-03-01T13:50:18;14.68;;;8.93;;
45893;SDS011;31603;51.148;16.932;2023-03-01T13:52:52;16.38;;;9.27;;
45893;SDS011;31603;51.148;16.932;2023-03-01T13:55:44;13.98;;;8.70;;
45893;SDS011;31603;51.148;16.932;2023-03-01T13:58:27;16.58;;;9.98;;
45893;SDS011;31603;51.148;16.932;2023-03-01T14:04:02;15.93;;;10.48;;
45893;SDS011;31603;51.148;16.932;2023-03-01T14:06:51;21.92;;;10.27;;
45893;SDS011;31603;51.148;16.932;2023-03-01T14:09:37;17.50;;;9.63;;
45893;SDS011;31603;51.148;16.932;2023-03-01T14:12:22;19.27;;;12.02;;
45893;SDS011;31603;51.148;16.932;2023-03-01T14:15:32;62.70;;;13.85;;
45893;SDS011;31603;51.148;16.932;2023-03-01T14:18:20;14.90;;;9.38;;
45893;SDS011;31603;51.148;16.932;2023-03-01T14:20:59;18.60;;;8.95;;
45893;SDS011;31603;51.148;16.932;2023-03-01T14:23:50;16.63;;;10.32;;
45893;SDS011;31603;51.148;16.932;2023-03-01T14:26:51;22.35;;;12.27;;
45893;SDS011;31603;51.148;16.932;2023-03-01T14:29:33;25.92;;;10.82;;
45893;SDS011;31603;51.148;16.932;2023-03-01T14:32:10;25.30;;;10.52;;
45893;SDS011;31603;51.148;16.932;2023-03-01T14:40:35;58.35;;;13.57;;
45893;SDS011;31603;51.148;16.932;2023-03-01T15:57:13;39.15;;;20.40;;
45893;SDS011;31603;51.148;16.932;2023-03-01T16:02:55;40.47;;;16.70;;
45893;SDS011;31603;51.148;16.932;2023-03-01T16:05:41;51.35;;;16.85;;
45893;SDS011;31603;51.148;16.932;2023-03-01T16:08:39;120.20;;;19.85;;
45893;SDS011;31603;51.148;16.932;2023-03-01T16:28:50;50.65;;;22.38;;
45893;SDS011;31603;51.148;16.932;2023-03-01T16:31:36;47.55;;;20.92;;
45893;SDS011;31603;51.148;16.932;2023-03-01T16:34:04;44.00;;;17.05;;
45893;SDS011;31603;51.148;16.932;2023-03-01T16:36:54;41.97;;;17.67;;
45893;SDS011;31603;51.148;16.932;2023-03-01T16:39:48;55.03;;;16.15;;
45893;SDS011;31603;51.148;16.932;2023-03-01T16:42:18;45.13;;;20.77;;
45893;SDS011;31603;51.148;16.932;2023-03-01T16:47:48;63.58;;;30.48;;
45893;SDS011;31603;51.148;16.932;2023-03-01T16:50:15;63.97;;;27.92;;
45893;SDS011;31603;51.148;16.932;2023-03-01T16:52:46;52.17;;;22.42;;
45893;SDS011;31603;51.148;16.932;2023-03-01T16:55:27;44.15;;;19.10;;
45893;SDS011;31603;51.148;16.932;2023-03-01T16:57:55;77.68;;;22.83;;
45893;SDS011;31603;51.148;16.932;2023-03-01T17:00:56;50.88;;;20.23;;
45893;SDS011;31603;51.148;16.932;2023-03-01T17:03:38;49.83;;;23.13;;
45893;SDS011;31603;51.148;16.932;2023-03-01T17:06:07;46.35;;;19.70;;
45893;SDS011;31603;51.148;16.932;2023-03-01T17:08:51;51.13;;;19.42;;
45893;SDS011;31603;51.148;16.932;2023-03-01T17:11:19;54.72;;;20.38;;
45893;SDS011;31603;51.148;16.932;2023-03-01T17:13:46;56.65;;;21.30;;
45893;SDS011;31603;51.148;16.932;2023-03-01T17:16:34;45.05;;;21.27;;
45893;SDS011;31603;51.148;16.932;2023-03-01T17:31:04;51.03;;;18.13;;
45893;SDS011;31603;51.148;16.932;2023-03-01T17:33:57;43.58;;;18.50;;
45893;SDS011;31603;51.148;16.932;2023-03-01T17:36:46;45.53;;;19.27;;
45893;SDS011;31603;51.148;16.932;2023-03-01T17:39:16;45.53;;;19.15;;
45893;SDS011;31603;51.148;16.932;2023-03-01T17:41:54;47.80;;;20.77;;
45893;SDS011;31603;51.148;16.932;2023-03-01T17:44:25;62.17;;;27.88;;
45893;SDS011;31603;51.148;16.932;2023-03-01T17:46:54;53.03;;;22.35;;
45893;SDS011;31603;51.148;16.932;2023-03-01T17:56:11;147.43;;;65.13;;
45893;SDS011;31603;51.148;16.932;2023-03-01T17:58:52;97.05;;;41.35;;
45893;SDS011;31603;51.148;16.932;2023-03-01T18:01:49;66.25;;;30.10;;
45893;SDS011;31603;51.148;16.932;2023-03-01T18:04:29;72.20;;;32.13;;
45893;SDS011;31603;51.148;16.932;2023-03-01T18:07:06;63.88;;;29.15;;
45893;SDS011;31603;51.148;16.932;2023-03-01T18:12:48;60.70;;;22.25;;
45893;SDS011;31603;51.148;16.932;2023-03-01T18:15:17;56.75;;;25.58;;
45893;SDS011;31603;51.148;16.932;2023-03-01T18:17:58;50.70;;;21.92;;
45893;SDS011;31603;51.148;16.932;2023-03-01T18:20:39;49.60;;;20.70;;
45893;SDS011;31603;51.148;16.932;2023-03-01T18:23:07;50.28;;;21.70;;
45893;SDS011;31603;51.148;16.932;2023-03-01T18:37:55;53.33;;;21.73;;
45893;SDS011;31603;51.148;16.932;2023-03-01T18:40:36;65.22;;;27.45;;
45893;SDS011;31603;51.148;16.932;2023-03-01T18:43:06;50.13;;;21.20;;
45893;SDS011;31603;51.148;16.932;2023-03-01T18:45:54;63.10;;;22.27;;
45893;SDS011;31603;51.148;16.932;2023-03-01T18:48:35;66.05;;;22.55;;
45893;SDS011;31603;51.148;16.932;2023-03-01T18:53:52;49.70;;;23.05;;
45893;SDS011;31603;51.148;16.932;2023-03-01T18:56:34;57.25;;;24.48;;
45893;SDS011;31603;51.148;16.932;2023-03-01T18:59:07;63.63;;;27.73;;
45893;SDS011;31603;51.148;16.932;2023-03-01T19:01:49;106.07;;;56.33;;
45893;SDS011;31603;51.148;16.932;2023-03-01T19:04:16;185.15;;;74.07;;
45893;SDS011;31603;51.148;16.932;2023-03-01T19:27:54;110.93;;;44.65;;
45893;SDS011;31603;51.148;16.932;2023-03-01T19:32:51;97.90;;;38.50;;
45893;SDS011;31603;51.148;16.932;2023-03-01T19:35:19;91.78;;;37.15;;
45893;SDS011;31603;51.148;16.932;2023-03-01T19:37:47;84.68;;;33.75;;
45893;SDS011;31603;51.148;16.932;2023-03-01T19:40:13;76.85;;;32.22;;
45893;SDS011;31603;51.148;16.932;2023-03-01T19:42:48;90.03;;;35.47;;
45893;SDS011;31603;51.148;16.932;2023-03-01T19:45:16;86.75;;;34.40;;
45893;SDS011;31603;51.148;16.932;2023-03-01T19:47:45;85.07;;;35.42;;
45893;SDS011;31603;51.148;16.932;2023-03-01T19:50:12;77.72;;;33.58;;
45893;SDS011;31603;51.148;16.932;2023-03-01T19:52:39;85.72;;;33.63;;
45893;SDS011;31603;51.148;16.932;2023-03-01T19:55:07;83.22;;;31.67;;
45893;SDS011;31603;51.148;16.932;2023-03-01T19:57:41;104.93;;;37.83;;
45893;SDS011;31603;51.148;16.932;2023-03-01T20:00:08;87.13;;;34.88;;
45893;SDS011;31603;51.148;16.932;2023-03-01T20:02:44;95.18;;;37.78;;
45893;SDS011;31603;51.148;16.932;2023-03-01T20:05:11;89.95;;;37.00;;
45893;SDS011;31603;51.148;16.932;2023-03-01T20:07:46;84.65;;;36.72;;
45893;SDS011;31603;51.148;16.932;2023-03-01T20:10:15;87.10;;;35.50;;
45893;SDS011;31603;51.148;16.932;2023-03-01T20:12:44;97.90;;;35.75;;
45893;SDS011;31603;51.148;16.932;2023-03-01T20:15:11;86.88;;;35.40;;
45893;SDS011;31603;51.148;16.932;2023-03-01T20:17:47;98.93;;;39.85;;
45893;SDS011;31603;51.148;16.932;2023-03-01T20:20:15;116.18;;;38.30;;
45893;SDS011;31603;51.148;16.932;2023-03-01T20:22:42;110.28;;;46.38;;
45893;SDS011;31603;51.148;16.932;2023-03-01T20:25:08;146.82;;;62.33;;
45893;SDS011;31603;51.148;16.932;2023-03-01T20:27:36;175.60;;;68.45;;
45893;SDS011;31603;51.148;16.932;2023-03-01T20:30:02;123.63;;;50.20;;
45893;SDS011;31603;51.148;16.932;2023-03-01T20:32:31;116.53;;;49.20;;
45893;SDS011;31603;51.148;16.932;2023-03-01T20:34:59;119.75;;;48.65;;
45893;SDS011;31603;51.148;16.932;2023-03-01T20:37:27;119.88;;;48.40;;
45893;SDS011;31603;51.148;16.932;2023-03-01T20:39:53;118.32;;;43.75;;
45893;SDS011;31603;51.148;16.932;2023-03-01T20:42:23;98.13;;;41.25;;
45893;SDS011;31603;51.148;16.932;2023-03-01T20:44:51;108.80;;;41.38;;
45893;SDS011;31603;51.148;16.932;2023-03-01T20:47:32;107.47;;;43.03;;
45893;SDS011;31603;51.148;16.932;2023-03-01T20:52:58;147.60;;;54.72;;
45893;SDS011;31603;51.148;16.932;2023-03-01T20:55:41;150.77;;;61.67;;
45893;SDS011;31603;51.148;16.932;2023-03-01T20:58:08;241.80;;;95.13;;
45893;SDS011;31603;51.148;16.932;2023-03-01T21:00:49;179.90;;;67.32;;
45893;SDS011;31603;51.148;16.932;2023-03-01T21:03:34;147.50;;;60.58;;
45893;SDS011;31603;51.148;16.932;2023-03-01T21:06:04;160.30;;;62.33;;
45893;SDS011;31603;51.148;16.932;2023-03-01T21:08:40;163.90;;;65.88;;
45893;SDS011;31603;51.148;16.932;2023-03-01T21:11:09;190.80;;;81.28;;
45893;SDS011;31603;51.148;16.932;2023-03-01T21:13:40;171.93;;;72.50;;
45893;SDS011;31603;51.148;16.932;2023-03-01T21:16:10;207.27;;;90.95;;
45893;SDS011;31603;51.148;16.932;2023-03-01T21:18:38;165.98;;;68.88;;
45893;SDS011;31603;51.148;16.932;2023-03-01T21:21:15;182.38;;;70.90;;
45893;SDS011;31603;51.148;16.932;2023-03-01T21:23:43;255.13;;;93.18;;